createdAt,value
2018-07-16T00:00:35.872Z,0.00
2018-07-16T00:01:36.082Z,0.00
2018-07-16T00:02:35.693Z,0.00
2018-07-16T00:03:35.590Z,0.00
2018-07-16T00:04:35.495Z,0.00
2018-07-16T00:05:35.404Z,0.00
2018-07-16T00:06:35.303Z,0.00
2018-07-16T00:07:35.212Z,0.00
2018-07-16T00:08:35.116Z,0.00
2018-07-16T00:09:35.013Z,0.00
2018-07-16T00:10:34.925Z,0.00
2018-07-16T00:11:34.822Z,0.00
2018-07-16T00:12:34.735Z,0.00
2018-07-16T00:13:34.645Z,0.00
2018-07-16T00:14:34.598Z,0.00
2018-07-16T00:15:34.450Z,0.00
2018-07-16T00:16:34.356Z,0.00
2018-07-16T00:17:34.255Z,0.00
2018-07-16T00:18:34.158Z,0.00
2018-07-16T00:19:34.068Z,0.00
2018-07-16T00:20:33.968Z,0.00
2018-07-16T00:21:33.878Z,0.00
2018-07-16T00:22:33.773Z,0.00
2018-07-16T00:23:33.682Z,0.00
2018-07-16T00:24:33.596Z,0.00
2018-07-16T00:25:33.492Z,0.00
2018-07-16T00:26:33.400Z,0.00
2018-07-16T00:27:33.307Z,0.00
2018-07-16T00:28:33.200Z,0.00
2018-07-16T00:29:33.115Z,0.00
2018-07-16T00:30:33.013Z,0.00
2018-07-16T00:31:32.920Z,0.00
2018-07-16T00:32:32.826Z,0.00
2018-07-16T00:33:32.728Z,0.00
2018-07-16T00:34:32.646Z,0.00
2018-07-16T00:35:32.545Z,0.00
2018-07-16T00:36:32.443Z,0.00
2018-07-16T00:37:32.352Z,0.00
2018-07-16T00:38:32.243Z,0.00
2018-07-16T00:39:32.152Z,0.00
2018-07-16T00:40:32.064Z,0.00
2018-07-16T00:41:31.961Z,0.00
2018-07-16T00:42:31.874Z,0.00
2018-07-16T00:43:31.782Z,0.00
2018-07-16T00:44:31.674Z,0.00
2018-07-16T00:45:31.585Z,0.00
2018-07-16T00:46:31.736Z,0.00
2018-07-16T00:47:31.393Z,0.00
2018-07-16T00:48:31.303Z,0.00
2018-07-16T00:49:31.208Z,0.00
2018-07-16T00:50:31.102Z,0.00
2018-07-16T00:51:31.001Z,0.00
2018-07-16T00:52:30.913Z,0.00
2018-07-16T00:53:30.822Z,0.00
2018-07-16T00:54:30.716Z,0.00
2018-07-16T00:55:30.626Z,0.00
2018-07-16T00:56:30.586Z,0.00
2018-07-16T00:57:30.451Z,0.00
2018-07-16T00:58:30.344Z,0.00
2018-07-16T00:59:30.240Z,0.00
2018-07-16T01:00:30.144Z,0.00
2018-07-16T01:01:30.055Z,0.00
2018-07-16T01:02:29.955Z,0.00
2018-07-16T01:03:29.864Z,0.00
2018-07-16T01:04:29.756Z,0.00
2018-07-16T01:05:29.665Z,0.00
2018-07-16T01:06:29.876Z,0.00
2018-07-16T01:07:29.473Z,0.00
2018-07-16T01:08:29.387Z,0.00
2018-07-16T01:09:29.284Z,0.00
2018-07-16T01:10:29.186Z,0.00
2018-07-16T01:11:29.096Z,0.00
2018-07-16T01:12:28.997Z,0.00
2018-07-16T01:13:28.905Z,0.00
2018-07-16T01:14:28.804Z,0.00
2018-07-16T01:15:28.714Z,0.00
2018-07-16T01:16:28.619Z,0.00
2018-07-16T01:17:28.515Z,0.00
2018-07-16T01:18:28.426Z,0.00
2018-07-16T01:19:28.323Z,0.00
2018-07-16T01:20:28.227Z,0.00
2018-07-16T01:21:28.126Z,0.00
2018-07-16T01:22:28.036Z,0.00
2018-07-16T01:23:27.945Z,0.00
2018-07-16T01:24:27.868Z,0.00
2018-07-16T01:25:27.756Z,0.00
2018-07-16T01:26:27.646Z,0.00
2018-07-16T01:27:27.554Z,0.00
2018-07-16T01:28:27.468Z,0.00
2018-07-16T01:29:27.365Z,0.00
2018-07-16T01:30:27.276Z,0.00
2018-07-16T01:31:27.172Z,0.00
2018-07-16T01:32:27.071Z,0.00
2018-07-16T01:33:26.986Z,0.00
2018-07-16T01:34:26.887Z,0.00
2018-07-16T01:35:26.798Z,0.00
2018-07-16T01:36:26.690Z,0.00
2018-07-16T01:37:26.599Z,0.00
2018-07-16T01:38:26.493Z,0.00
2018-07-16T01:39:26.402Z,0.00
2018-07-16T01:40:26.315Z,0.00
2018-07-16T01:41:26.214Z,0.00
2018-07-16T01:42:26.119Z,0.00
2018-07-16T01:43:26.016Z,0.00
2018-07-16T01:44:25.930Z,0.00
2018-07-16T01:45:25.827Z,0.00
2018-07-16T01:46:25.735Z,0.00
2018-07-16T01:47:25.642Z,0.00
2018-07-16T01:48:25.536Z,0.00
2018-07-16T01:49:25.451Z,0.00
2018-07-16T01:50:25.345Z,0.00
2018-07-16T01:51:25.255Z,0.00
2018-07-16T01:52:25.150Z,0.00
2018-07-16T01:53:25.058Z,0.00
2018-07-16T01:54:24.967Z,0.00
2018-07-16T01:55:24.877Z,0.00
2018-07-16T01:56:24.778Z,0.00
2018-07-16T01:57:24.674Z,0.00
2018-07-16T01:58:24.577Z,0.00
2018-07-16T01:59:24.475Z,0.00
2018-07-16T02:00:24.387Z,0.00
2018-07-16T02:01:24.283Z,0.00
2018-07-16T02:02:24.196Z,0.00
2018-07-16T02:03:24.105Z,0.00
2018-07-16T02:04:24.000Z,0.00
2018-07-16T02:05:23.918Z,0.00
2018-07-16T02:06:23.810Z,0.00
2018-07-16T02:07:23.717Z,0.00
2018-07-16T02:08:23.609Z,0.00
2018-07-16T02:09:23.517Z,0.00
2018-07-16T02:10:23.412Z,0.00
2018-07-16T02:11:23.322Z,0.00
2018-07-16T02:12:23.222Z,0.00
2018-07-16T02:13:23.131Z,0.00
2018-07-16T02:14:23.039Z,0.00
2018-07-16T02:15:22.937Z,0.00
2018-07-16T02:16:22.849Z,0.00
2018-07-16T02:17:22.750Z,0.00
2018-07-16T02:18:22.653Z,0.00
2018-07-16T02:19:22.551Z,0.00
2018-07-16T02:20:22.454Z,0.00
2018-07-16T02:21:22.351Z,0.00
2018-07-16T02:22:22.264Z,0.00
2018-07-16T02:23:22.158Z,0.00
2018-07-16T02:24:22.070Z,0.00
2018-07-16T02:25:21.985Z,0.00
2018-07-16T02:26:21.878Z,0.00
2018-07-16T02:27:21.788Z,0.00
2018-07-16T02:28:21.680Z,0.00
2018-07-16T02:29:21.592Z,0.00
2018-07-16T02:30:21.495Z,0.00
2018-07-16T02:31:21.396Z,0.00
2018-07-16T02:32:21.289Z,0.00
2018-07-16T02:33:21.200Z,0.00
2018-07-16T02:34:21.098Z,0.00
2018-07-16T02:35:21.007Z,0.00
2018-07-16T02:36:20.909Z,0.00
2018-07-16T02:37:20.817Z,0.00
2018-07-16T02:38:20.712Z,0.00
2018-07-16T02:39:20.623Z,0.00
2018-07-16T02:40:20.521Z,0.00
2018-07-16T02:41:20.429Z,0.00
2018-07-16T02:42:20.337Z,0.00
2018-07-16T02:43:20.234Z,0.00
2018-07-16T02:44:20.138Z,0.00
2018-07-16T02:45:20.036Z,0.00
2018-07-16T02:46:19.950Z,0.00
2018-07-16T02:47:19.846Z,0.00
2018-07-16T02:48:19.752Z,0.00
2018-07-16T02:49:19.649Z,0.00
2018-07-16T02:50:19.555Z,0.00
2018-07-16T02:51:19.452Z,0.00
2018-07-16T02:52:19.366Z,0.00
2018-07-16T02:53:19.262Z,0.00
2018-07-16T02:54:19.167Z,0.00
2018-07-16T02:55:19.064Z,0.00
2018-07-16T02:56:19.067Z,0.00
2018-07-16T02:57:18.876Z,5.63
2018-07-16T02:58:18.786Z,5.63
2018-07-16T02:59:18.686Z,5.63
2018-07-16T03:00:18.588Z,5.63
2018-07-16T03:01:18.734Z,5.63
2018-07-16T03:02:18.398Z,5.63
2018-07-16T03:03:18.304Z,5.63
2018-07-16T03:04:18.197Z,5.63
2018-07-16T03:05:18.106Z,5.63
2018-07-16T03:06:18.005Z,5.63
2018-07-16T03:07:17.914Z,11.25
2018-07-16T03:08:17.815Z,11.25
2018-07-16T03:09:17.725Z,11.25
2018-07-16T03:10:17.617Z,11.25
2018-07-16T03:11:17.526Z,11.25
2018-07-16T03:12:17.458Z,11.25
2018-07-16T03:13:17.338Z,11.25
2018-07-16T03:14:17.230Z,16.88
2018-07-16T03:15:17.142Z,16.88
2018-07-16T03:16:17.033Z,16.88
2018-07-16T03:17:16.941Z,16.88
2018-07-16T03:18:16.844Z,16.88
2018-07-16T03:19:16.754Z,16.88
2018-07-16T03:20:16.647Z,22.50
2018-07-16T03:21:16.555Z,22.50
2018-07-16T03:22:16.450Z,22.50
2018-07-16T03:23:16.359Z,22.50
2018-07-16T03:24:16.260Z,22.50
2018-07-16T03:25:16.168Z,22.50
2018-07-16T03:26:16.064Z,22.50
2018-07-16T03:27:15.973Z,22.50
2018-07-16T03:28:15.874Z,28.13
2018-07-16T03:29:15.782Z,28.13
2018-07-16T03:30:15.677Z,28.13
2018-07-16T03:31:15.589Z,28.13
2018-07-16T03:32:15.480Z,33.75
2018-07-16T03:33:15.387Z,33.75
2018-07-16T03:34:15.290Z,33.75
2018-07-16T03:35:15.201Z,39.38
2018-07-16T03:36:15.093Z,39.38
2018-07-16T03:37:15.002Z,39.38
2018-07-16T03:38:14.898Z,45.00
2018-07-16T03:39:14.806Z,45.00
2018-07-16T03:40:14.706Z,45.00
2018-07-16T03:41:14.615Z,50.63
2018-07-16T03:42:14.509Z,50.63
2018-07-16T03:43:14.417Z,50.63
2018-07-16T03:44:14.319Z,56.25
2018-07-16T03:45:14.227Z,56.25
2018-07-16T03:46:14.127Z,61.88
2018-07-16T03:47:14.036Z,61.88
2018-07-16T03:48:13.941Z,67.50
2018-07-16T03:49:13.852Z,67.50
2018-07-16T03:50:13.749Z,67.50
2018-07-16T03:51:13.895Z,61.88
2018-07-16T03:52:13.549Z,67.50
2018-07-16T03:53:13.447Z,67.50
2018-07-16T03:54:13.358Z,73.13
2018-07-16T03:55:13.256Z,73.13
2018-07-16T03:56:13.168Z,78.75
2018-07-16T03:57:13.064Z,78.75
2018-07-16T03:58:12.973Z,84.38
2018-07-16T03:59:12.867Z,90.00
2018-07-16T04:00:12.780Z,90.00
2018-07-16T04:01:12.977Z,95.63
2018-07-16T04:02:12.583Z,101.25
2018-07-16T04:03:12.494Z,101.25
2018-07-16T04:04:12.385Z,101.25
2018-07-16T04:05:12.295Z,101.25
2018-07-16T04:06:12.198Z,101.25
2018-07-16T04:07:12.107Z,101.25
2018-07-16T04:08:11.999Z,95.63
2018-07-16T04:09:11.910Z,95.63
2018-07-16T04:10:11.816Z,95.63
2018-07-16T04:11:11.712Z,101.25
2018-07-16T04:12:11.626Z,101.25
2018-07-16T04:13:11.523Z,106.88
2018-07-16T04:14:11.427Z,106.88
2018-07-16T04:15:11.348Z,106.88
2018-07-16T04:16:11.237Z,112.50
2018-07-16T04:17:11.146Z,118.13
2018-07-16T04:18:11.045Z,118.13
2018-07-16T04:19:10.955Z,123.75
2018-07-16T04:20:10.847Z,129.38
2018-07-16T04:21:10.756Z,123.75
2018-07-16T04:22:10.669Z,123.75
2018-07-16T04:23:10.567Z,123.75
2018-07-16T04:24:10.473Z,129.38
2018-07-16T04:25:10.366Z,146.25
2018-07-16T04:26:10.278Z,146.25
2018-07-16T04:27:10.191Z,146.25
2018-07-16T04:28:10.120Z,157.50
2018-07-16T04:29:09.998Z,146.25
2018-07-16T04:30:09.899Z,135.00
2018-07-16T04:31:09.796Z,135.00
2018-07-16T04:32:09.714Z,135.00
2018-07-16T04:33:09.619Z,140.63
2018-07-16T04:34:09.517Z,146.25
2018-07-16T04:35:09.427Z,151.88
2018-07-16T04:36:09.320Z,157.50
2018-07-16T04:37:09.227Z,174.38
2018-07-16T04:38:09.139Z,185.63
2018-07-16T04:39:09.048Z,191.25
2018-07-16T04:40:08.945Z,208.13
2018-07-16T04:41:08.851Z,230.63
2018-07-16T04:42:08.761Z,258.75
2018-07-16T04:43:08.661Z,275.63
2018-07-16T04:44:08.579Z,281.25
2018-07-16T04:45:08.482Z,281.25
2018-07-16T04:46:08.386Z,286.88
2018-07-16T04:47:08.283Z,286.88
2018-07-16T04:48:08.195Z,292.50
2018-07-16T04:49:08.106Z,298.13
2018-07-16T04:50:08.003Z,303.75
2018-07-16T04:51:07.908Z,303.75
2018-07-16T04:52:07.815Z,309.38
2018-07-16T04:53:07.722Z,315.00
2018-07-16T04:54:07.639Z,320.63
2018-07-16T04:55:07.536Z,326.25
2018-07-16T04:56:07.489Z,331.88
2018-07-16T04:57:07.350Z,337.50
2018-07-16T04:58:07.257Z,343.13
2018-07-16T04:59:07.166Z,343.13
2018-07-16T05:00:07.078Z,348.75
2018-07-16T05:01:06.988Z,348.75
2018-07-16T05:02:06.895Z,354.38
2018-07-16T05:03:06.797Z,360.00
2018-07-16T05:04:06.706Z,365.63
2018-07-16T05:05:06.612Z,365.63
2018-07-16T05:06:06.524Z,371.25
2018-07-16T05:07:06.436Z,376.88
2018-07-16T05:08:06.339Z,382.50
2018-07-16T05:09:06.246Z,382.50
2018-07-16T05:10:06.158Z,388.13
2018-07-16T05:11:06.070Z,388.13
2018-07-16T05:12:05.978Z,393.75
2018-07-16T05:13:05.887Z,399.38
2018-07-16T05:14:05.794Z,405.00
2018-07-16T05:15:05.701Z,410.63
2018-07-16T05:16:05.619Z,416.25
2018-07-16T05:17:05.531Z,421.88
2018-07-16T05:18:05.501Z,427.50
2018-07-16T05:19:05.341Z,438.75
2018-07-16T05:20:05.267Z,444.38
2018-07-16T05:21:05.176Z,444.38
2018-07-16T05:22:05.081Z,450.00
2018-07-16T05:23:04.991Z,455.63
2018-07-16T05:24:04.902Z,461.25
2018-07-16T05:25:04.813Z,466.88
2018-07-16T05:26:04.722Z,472.50
2018-07-16T05:27:04.633Z,472.50
2018-07-16T05:28:04.536Z,483.75
2018-07-16T05:29:04.455Z,483.75
2018-07-16T05:30:04.365Z,495.00
2018-07-16T05:31:04.275Z,500.63
2018-07-16T05:32:04.239Z,506.25
2018-07-16T05:33:04.094Z,511.88
2018-07-16T05:34:04.003Z,523.13
2018-07-16T05:35:03.927Z,528.75
2018-07-16T05:36:03.837Z,540.00
2018-07-16T05:37:03.746Z,551.25
2018-07-16T05:38:03.665Z,556.88
2018-07-16T05:39:03.564Z,568.13
2018-07-16T05:40:03.483Z,585.00
2018-07-16T05:41:03.388Z,601.88
2018-07-16T05:42:03.306Z,618.75
2018-07-16T05:43:03.214Z,646.88
2018-07-16T05:44:03.132Z,675.00
2018-07-16T05:45:03.041Z,708.75
2018-07-16T05:46:02.947Z,753.75
2018-07-16T05:47:02.860Z,798.75
2018-07-16T05:48:02.783Z,855.00
2018-07-16T05:49:02.692Z,916.88
2018-07-16T05:50:02.603Z,973.13
2018-07-16T05:51:02.519Z,1046.25
2018-07-16T05:52:02.432Z,1085.63
2018-07-16T05:53:02.342Z,1119.38
2018-07-16T05:54:02.265Z,1147.50
2018-07-16T05:55:02.177Z,1158.75
2018-07-16T05:56:02.081Z,1141.88
2018-07-16T05:57:02.001Z,1125.00
2018-07-16T05:58:01.912Z,1085.63
2018-07-16T05:59:01.823Z,1046.25
2018-07-16T06:00:01.740Z,1029.38
2018-07-16T06:01:01.655Z,1012.50
2018-07-16T06:02:01.560Z,984.38
2018-07-16T06:03:01.482Z,956.25
2018-07-16T06:04:01.394Z,945.00
2018-07-16T06:05:01.316Z,928.13
2018-07-16T06:06:01.222Z,922.50
2018-07-16T06:07:01.130Z,922.50
2018-07-16T06:08:01.056Z,928.13
2018-07-16T06:09:00.966Z,928.13
2018-07-16T06:10:00.884Z,933.75
2018-07-16T06:11:00.796Z,945.00
2018-07-16T06:12:00.700Z,950.63
2018-07-16T06:13:00.621Z,973.13
2018-07-16T06:14:00.536Z,984.38
2018-07-16T06:15:00.459Z,990.00
2018-07-16T06:16:00.370Z,995.63
2018-07-16T06:17:00.289Z,1001.25
2018-07-16T06:18:00.191Z,1006.88
2018-07-16T06:19:00.114Z,1018.13
2018-07-16T06:20:00.033Z,1023.75
2018-07-16T06:20:59.952Z,1035.00
2018-07-16T06:21:59.853Z,1046.25
2018-07-16T06:22:59.779Z,1057.50
2018-07-16T06:23:59.693Z,1074.38
2018-07-16T06:24:59.610Z,1085.63
2018-07-16T06:25:59.521Z,1108.13
2018-07-16T06:26:59.447Z,1130.63
2018-07-16T06:27:59.349Z,1147.50
2018-07-16T06:28:59.271Z,1170.00
2018-07-16T06:29:59.181Z,1243.13
2018-07-16T06:30:59.102Z,1282.50
2018-07-16T06:31:59.009Z,1248.75
2018-07-16T06:32:58.930Z,1203.75
2018-07-16T06:33:58.841Z,1198.13
2018-07-16T06:34:58.763Z,1215.00
2018-07-16T06:35:58.678Z,1220.63
2018-07-16T06:36:58.598Z,1243.13
2018-07-16T06:37:58.520Z,1271.25
2018-07-16T06:38:58.428Z,1276.88
2018-07-16T06:39:58.362Z,1271.25
2018-07-16T06:40:58.404Z,1293.75
2018-07-16T06:41:58.176Z,1288.13
2018-07-16T06:42:58.100Z,1293.75
2018-07-16T06:43:58.010Z,1299.38
2018-07-16T06:44:57.932Z,1293.75
2018-07-16T06:45:57.853Z,1299.38
2018-07-16T06:46:57.761Z,1293.75
2018-07-16T06:47:57.687Z,1288.13
2018-07-16T06:48:57.599Z,1282.50
2018-07-16T06:49:57.529Z,1276.88
2018-07-16T06:50:57.436Z,1271.25
2018-07-16T06:51:57.343Z,1271.25
2018-07-16T06:52:57.268Z,1271.25
2018-07-16T06:53:57.190Z,1271.25
2018-07-16T06:54:57.109Z,1293.75
2018-07-16T06:55:57.016Z,1310.63
2018-07-16T06:56:56.937Z,1333.13
2018-07-16T06:57:56.853Z,1456.88
2018-07-16T06:58:56.771Z,2165.63
2018-07-16T06:59:56.698Z,2790.00
2018-07-16T07:00:56.606Z,2649.38
2018-07-16T07:01:56.521Z,2508.75
2018-07-16T07:02:56.444Z,2520.00
2018-07-16T07:03:56.359Z,2565.00
2018-07-16T07:04:56.280Z,2581.88
2018-07-16T07:05:56.203Z,2638.13
2018-07-16T07:06:56.112Z,2694.38
2018-07-16T07:07:56.029Z,2435.63
2018-07-16T07:08:55.950Z,2610.00
2018-07-16T07:09:55.935Z,2604.38
2018-07-16T07:10:55.789Z,2660.63
2018-07-16T07:11:55.704Z,2649.38
2018-07-16T07:12:55.626Z,2705.63
2018-07-16T07:13:55.531Z,2705.63
2018-07-16T07:14:55.453Z,2711.25
2018-07-16T07:15:55.378Z,2733.75
2018-07-16T07:16:55.289Z,2694.38
2018-07-16T07:17:55.210Z,2683.13
2018-07-16T07:18:55.130Z,2778.75
2018-07-16T07:19:55.056Z,2745.00
2018-07-16T07:20:54.969Z,2722.50
2018-07-16T07:21:54.884Z,2745.00
2018-07-16T07:22:54.806Z,2778.75
2018-07-16T07:23:54.723Z,2756.25
2018-07-16T07:24:54.634Z,2756.25
2018-07-16T07:25:54.559Z,2818.13
2018-07-16T07:26:54.481Z,2829.38
2018-07-16T07:27:54.407Z,2846.25
2018-07-16T07:28:54.309Z,2851.88
2018-07-16T07:29:54.230Z,2880.00
2018-07-16T07:30:54.152Z,2930.63
2018-07-16T07:31:54.078Z,2930.63
2018-07-16T07:32:53.988Z,2874.38
2018-07-16T07:33:53.904Z,2896.88
2018-07-16T07:34:53.860Z,2992.50
2018-07-16T07:35:53.757Z,2998.13
2018-07-16T07:36:53.661Z,3048.75
2018-07-16T07:37:53.583Z,3116.25
2018-07-16T07:38:53.506Z,3155.63
2018-07-16T07:39:53.445Z,3195.00
2018-07-16T07:40:53.344Z,3178.13
2018-07-16T07:41:53.257Z,3189.38
2018-07-16T07:42:53.178Z,3217.50
2018-07-16T07:43:53.096Z,3256.88
2018-07-16T07:44:53.017Z,3352.50
2018-07-16T07:45:52.941Z,3346.88
2018-07-16T07:46:52.851Z,3330.00
2018-07-16T07:47:52.775Z,3341.25
2018-07-16T07:48:52.698Z,3301.88
2018-07-16T07:49:52.614Z,3307.50
2018-07-16T07:50:52.534Z,3453.75
2018-07-16T07:51:52.449Z,3465.00
2018-07-16T07:52:52.370Z,3465.00
2018-07-16T07:53:52.294Z,3515.63
2018-07-16T07:54:52.419Z,3526.88
2018-07-16T07:55:52.135Z,3577.50
2018-07-16T07:56:52.054Z,3577.50
2018-07-16T07:57:51.968Z,3566.25
2018-07-16T07:58:51.889Z,3656.25
2018-07-16T07:59:51.806Z,3650.63
2018-07-16T08:00:51.728Z,3600.00
2018-07-16T08:01:51.648Z,3577.50
2018-07-16T08:02:51.558Z,3600.00
2018-07-16T08:03:51.484Z,3628.13
2018-07-16T08:04:51.405Z,3628.13
2018-07-16T08:05:51.328Z,3650.63
2018-07-16T08:06:51.247Z,3616.88
2018-07-16T08:07:51.159Z,3594.38
2018-07-16T08:08:51.081Z,3650.63
2018-07-16T08:09:51.000Z,3594.38
2018-07-16T08:10:50.922Z,3616.88
2018-07-16T08:11:50.829Z,3543.75
2018-07-16T08:12:50.750Z,3369.38
2018-07-16T08:13:50.715Z,2671.88
2018-07-16T08:14:50.596Z,1631.25
2018-07-16T08:15:50.501Z,894.38
2018-07-16T08:16:50.435Z,652.50
2018-07-16T08:17:50.354Z,500.63
2018-07-16T08:18:50.256Z,438.75
2018-07-16T08:19:50.184Z,427.50
2018-07-16T08:20:50.105Z,421.88
2018-07-16T08:21:50.007Z,410.63
2018-07-16T08:22:49.929Z,410.63
2018-07-16T08:23:49.842Z,410.63
2018-07-16T08:24:49.764Z,416.25
2018-07-16T08:25:49.677Z,421.88
2018-07-16T08:26:49.596Z,478.13
2018-07-16T08:27:49.501Z,585.00
2018-07-16T08:28:49.424Z,669.38
2018-07-16T08:29:49.336Z,838.13
2018-07-16T08:30:49.259Z,1046.25
2018-07-16T08:31:49.165Z,1771.88
2018-07-16T08:32:49.073Z,2925.00
2018-07-16T08:33:48.992Z,3791.25
2018-07-16T08:34:48.902Z,3965.63
2018-07-16T08:35:48.827Z,3926.25
2018-07-16T08:36:48.736Z,3926.25
2018-07-16T08:37:48.644Z,4055.63
2018-07-16T08:38:48.565Z,3965.63
2018-07-16T08:39:48.478Z,3988.13
2018-07-16T08:40:48.388Z,4055.63
2018-07-16T08:41:48.294Z,4095.00
2018-07-16T08:42:48.217Z,4134.38
2018-07-16T08:43:48.122Z,4252.50
2018-07-16T08:44:48.031Z,4156.88
2018-07-16T08:45:47.941Z,4061.25
2018-07-16T08:46:47.863Z,4123.13
2018-07-16T08:47:47.788Z,4196.25
2018-07-16T08:48:47.684Z,4173.75
2018-07-16T08:49:47.595Z,4320.00
2018-07-16T08:50:47.529Z,4336.88
2018-07-16T08:51:47.422Z,4314.38
2018-07-16T08:52:47.336Z,4331.25
2018-07-16T08:53:47.245Z,4224.38
2018-07-16T08:54:47.165Z,4331.25
2018-07-16T08:55:47.071Z,4359.38
2018-07-16T08:56:46.981Z,4342.50
2018-07-16T08:57:46.902Z,4297.50
2018-07-16T08:58:46.813Z,4246.88
2018-07-16T08:59:46.739Z,4348.13
2018-07-16T09:00:46.647Z,4415.63
2018-07-16T09:01:46.565Z,4398.75
2018-07-16T09:02:46.473Z,4359.38
2018-07-16T09:03:46.398Z,4387.50
2018-07-16T09:04:46.309Z,4404.38
2018-07-16T09:05:46.228Z,4449.38
2018-07-16T09:06:46.149Z,4404.38
2018-07-16T09:07:46.055Z,4381.88
2018-07-16T09:08:45.975Z,4151.25
2018-07-16T09:09:45.892Z,3937.50
2018-07-16T09:10:45.817Z,4055.63
2018-07-16T09:11:45.737Z,4190.63
2018-07-16T09:12:45.646Z,4207.50
2018-07-16T09:13:45.560Z,4252.50
2018-07-16T09:14:45.481Z,4353.75
2018-07-16T09:15:45.407Z,4314.38
2018-07-16T09:16:45.340Z,4168.13
2018-07-16T09:17:45.237Z,4033.13
2018-07-16T09:18:45.155Z,4123.13
2018-07-16T09:19:45.082Z,4325.63
2018-07-16T09:20:45.004Z,4342.50
2018-07-16T09:21:44.927Z,4370.63
2018-07-16T09:22:44.837Z,4494.38
2018-07-16T09:23:44.752Z,4455.00
2018-07-16T09:24:44.675Z,4381.88
2018-07-16T09:25:44.611Z,4500.00
2018-07-16T09:26:44.521Z,4477.50
2018-07-16T09:27:44.437Z,4241.25
2018-07-16T09:28:44.359Z,2891.25
2018-07-16T09:29:44.283Z,4410.00
2018-07-16T09:30:44.205Z,4353.75
2018-07-16T09:31:44.130Z,4432.50
2018-07-16T09:32:44.047Z,4348.13
2018-07-16T09:33:43.958Z,4376.25
2018-07-16T09:34:43.879Z,4443.75
2018-07-16T09:35:43.806Z,4415.63
2018-07-16T09:36:43.728Z,4291.88
2018-07-16T09:37:43.648Z,4348.13
2018-07-16T09:38:43.569Z,4466.25
2018-07-16T09:39:43.486Z,4539.38
2018-07-16T09:40:43.407Z,4533.75
2018-07-16T09:41:43.335Z,4460.63
2018-07-16T09:42:43.268Z,4455.00
2018-07-16T09:43:43.174Z,4477.50
2018-07-16T09:44:43.096Z,4516.88
2018-07-16T09:45:43.016Z,4488.75
2018-07-16T09:46:42.940Z,4511.25
2018-07-16T09:47:42.863Z,4606.88
2018-07-16T09:48:42.785Z,4410.00
2018-07-16T09:49:42.705Z,4443.75
2018-07-16T09:50:42.627Z,4477.50
2018-07-16T09:51:42.565Z,4606.88
2018-07-16T09:52:42.474Z,4556.25
2018-07-16T09:53:42.394Z,4601.25
2018-07-16T09:54:42.315Z,4584.38
2018-07-16T09:55:42.234Z,4640.63
2018-07-16T09:56:42.155Z,4606.88
2018-07-16T09:57:42.098Z,4550.63
2018-07-16T09:58:42.016Z,4471.88
2018-07-16T09:59:41.933Z,4545.00
2018-07-16T10:00:41.855Z,4601.25
2018-07-16T10:01:41.774Z,4432.50
2018-07-16T10:02:41.696Z,4342.50
2018-07-16T10:03:41.622Z,4404.38
2018-07-16T10:04:41.557Z,4640.63
2018-07-16T10:05:41.461Z,4696.88
2018-07-16T10:06:41.382Z,4651.88
2018-07-16T10:07:41.309Z,4685.63
2018-07-16T10:08:41.232Z,4668.75
2018-07-16T10:09:41.155Z,4567.50
2018-07-16T10:10:41.076Z,4505.63
2018-07-16T10:11:40.994Z,4511.25
2018-07-16T10:12:40.917Z,4612.50
2018-07-16T10:13:40.853Z,4713.75
2018-07-16T10:14:40.761Z,4612.50
2018-07-16T10:15:40.679Z,4516.88
2018-07-16T10:16:40.613Z,4539.38
2018-07-16T10:17:40.538Z,4426.88
2018-07-16T10:18:40.460Z,4522.50
2018-07-16T10:19:40.385Z,4550.63
2018-07-16T10:20:40.386Z,4561.88
2018-07-16T10:21:40.225Z,4753.13
2018-07-16T10:22:40.146Z,4730.63
2018-07-16T10:23:40.071Z,4843.13
2018-07-16T10:24:39.994Z,4764.38
2018-07-16T10:25:39.924Z,4713.75
2018-07-16T10:26:39.847Z,4786.88
2018-07-16T10:27:39.766Z,4888.13
2018-07-16T10:28:39.688Z,4882.50
2018-07-16T10:29:39.616Z,4826.25
2018-07-16T10:30:39.537Z,4933.13
2018-07-16T10:31:39.454Z,5073.75
2018-07-16T10:32:39.388Z,4916.25
2018-07-16T10:33:39.354Z,4910.63
2018-07-16T10:34:39.231Z,4876.88
2018-07-16T10:35:39.155Z,4905.00
2018-07-16T10:36:39.089Z,4995.00
2018-07-16T10:37:39.006Z,4803.75
2018-07-16T10:38:38.928Z,4713.75
2018-07-16T10:39:38.854Z,3487.50
2018-07-16T10:40:38.788Z,4410.00
2018-07-16T10:41:38.712Z,4781.25
2018-07-16T10:42:38.634Z,4899.38
2018-07-16T10:43:38.577Z,5045.63
2018-07-16T10:44:38.486Z,5439.38
2018-07-16T10:45:38.410Z,6356.25
2018-07-16T10:46:38.344Z,6840.00
2018-07-16T10:47:38.266Z,6744.38
2018-07-16T10:48:38.186Z,6873.75
2018-07-16T10:49:38.182Z,6828.75
2018-07-16T10:50:38.040Z,6941.25
2018-07-16T10:51:37.966Z,7104.38
2018-07-16T10:52:37.901Z,7160.63
2018-07-16T10:53:37.822Z,7728.75
2018-07-16T10:54:37.744Z,8201.25
2018-07-16T10:55:37.673Z,7582.50
2018-07-16T10:56:37.595Z,7222.50
2018-07-16T10:57:37.514Z,6446.25
2018-07-16T10:58:37.450Z,691.88
2018-07-16T10:59:37.375Z,2120.63
2018-07-16T11:00:37.297Z,7188.75
2018-07-16T11:01:37.229Z,6142.50
2018-07-16T11:02:37.150Z,5096.25
2018-07-16T11:03:37.076Z,4882.50
2018-07-16T11:04:36.997Z,4770.00
2018-07-16T11:05:36.931Z,4831.88
2018-07-16T11:06:36.852Z,4983.75
2018-07-16T11:07:36.769Z,5124.38
2018-07-16T11:08:36.692Z,5107.50
2018-07-16T11:09:36.629Z,5068.13
2018-07-16T11:10:36.550Z,5225.63
2018-07-16T11:11:36.468Z,5101.88
2018-07-16T11:12:36.389Z,3543.75
2018-07-16T11:13:36.314Z,2430.00
2018-07-16T11:14:36.235Z,798.75
2018-07-16T11:15:36.162Z,618.75
2018-07-16T11:16:36.009Z,697.50
2018-07-16T11:17:36.014Z,911.25
2018-07-16T11:18:35.933Z,945.00
2018-07-16T11:19:35.859Z,1873.13
2018-07-16T11:20:35.780Z,1963.13
2018-07-16T11:21:35.706Z,1805.63
2018-07-16T11:22:35.628Z,1710.00
2018-07-16T11:23:35.543Z,1704.38
2018-07-16T11:24:35.465Z,1608.75
2018-07-16T11:25:35.395Z,1580.63
2018-07-16T11:26:35.313Z,1569.38
2018-07-16T11:27:35.233Z,1569.38
2018-07-16T11:28:35.159Z,1586.25
2018-07-16T11:29:35.072Z,1608.75
2018-07-16T11:30:34.993Z,1513.13
2018-07-16T11:31:34.919Z,1428.75
2018-07-16T11:32:34.841Z,1496.25
2018-07-16T11:33:34.762Z,1563.75
2018-07-16T11:34:34.682Z,1586.25
2018-07-16T11:35:34.691Z,1586.25
2018-07-16T11:36:34.530Z,1693.13
2018-07-16T11:37:34.450Z,1479.38
2018-07-16T11:38:34.371Z,658.13
2018-07-16T11:39:34.289Z,1282.50
2018-07-16T11:40:34.210Z,1620.00
2018-07-16T11:41:34.141Z,1524.38
2018-07-16T11:42:34.058Z,1411.88
2018-07-16T11:43:33.980Z,1220.63
2018-07-16T11:44:33.897Z,1164.38
2018-07-16T11:45:33.822Z,1524.38
2018-07-16T11:46:33.746Z,1704.38
2018-07-16T11:47:33.581Z,1243.13
2018-07-16T11:48:33.579Z,866.25
2018-07-16T11:49:33.493Z,573.75
2018-07-16T11:50:33.427Z,438.75
2018-07-16T11:51:33.343Z,399.38
2018-07-16T11:52:33.264Z,371.25
2018-07-16T11:53:33.185Z,360.00
2018-07-16T11:54:33.095Z,343.13
2018-07-16T11:55:33.012Z,337.50
2018-07-16T11:56:32.938Z,331.88
2018-07-16T11:57:32.858Z,326.25
2018-07-16T11:58:32.767Z,320.63
2018-07-16T11:59:32.684Z,320.63
2018-07-16T12:00:32.595Z,331.88
2018-07-16T12:01:32.518Z,871.88
2018-07-16T12:02:32.440Z,2722.50
2018-07-16T12:03:32.437Z,3796.88
2018-07-16T12:04:32.275Z,3993.75
2018-07-16T12:05:32.178Z,4196.25
2018-07-16T12:06:32.100Z,5096.25
2018-07-16T12:07:32.014Z,5056.88
2018-07-16T12:08:31.934Z,4905.00
2018-07-16T12:09:31.845Z,4747.50
2018-07-16T12:10:31.767Z,4702.50
2018-07-16T12:11:31.671Z,4663.13
2018-07-16T12:12:31.637Z,3060.00
2018-07-16T12:13:31.508Z,781.88
2018-07-16T12:14:31.429Z,427.50
2018-07-16T12:15:31.346Z,388.13
2018-07-16T12:16:31.255Z,365.63
2018-07-16T12:17:31.175Z,354.38
2018-07-16T12:18:31.096Z,343.13
2018-07-16T12:19:31.011Z,343.13
2018-07-16T12:20:31.002Z,337.50
2018-07-16T12:21:30.852Z,331.88
2018-07-16T12:22:30.774Z,331.88
2018-07-16T12:23:30.686Z,354.38
2018-07-16T12:24:30.609Z,466.88
2018-07-16T12:25:30.526Z,568.13
2018-07-16T12:26:30.452Z,427.50
2018-07-16T12:27:30.354Z,337.50
2018-07-16T12:28:30.276Z,309.38
2018-07-16T12:29:30.202Z,303.75
2018-07-16T12:30:30.111Z,309.38